Time;durP1;ratioP1;P1;durP2;ratioP2;P2;SDS_P1;SDS_P2;PMS_P1;PMS_P2;Temp;Humidity;BMP_temperature;BMP_pressure;BME280_temperature;BME280_humidity;BME280_pressure;Samples;Min_cycle;Max_cycle;Signal;HPM_P1;HPM_P2
2022/09/30 00:01:42;;;;;;;;;0.00;0.00;;;;;13.05;77.94;99707.75;4598696;28;2724304;-70
2022/09/30 00:04:16;;;;;;;;;0.00;0.00;;;;;13.18;77.92;99708.69;4612294;28;2727314;-69
2022/09/30 00:06:41;;;;;;;;;0.00;0.00;;;;;13.05;77.32;99709.47;4597683;28;2719080;-70
2022/09/30 00:09:08;;;;;;;;;0.00;0.00;;;;;13.04;77.96;99734.81;4602151;28;2712782;-70
2022/09/30 00:11:34;;;;;;;;;0.00;0.00;;;;;12.91;78.23;99746.97;4618288;28;2729491;-71
2022/09/30 00:14:01;;;;;;;;;0.00;0.00;;;;;13.01;78.13;99779.38;4618959;28;2731555;-69
2022/09/30 00:16:29;;;;;;;;;0.00;0.00;;;;;13.12;76.78;99789.94;4600237;28;2435714;-71
2022/09/30 00:18:57;;;;;;;;;0.00;0.00;;;;;13.08;77.35;99801.28;4599212;28;2709104;-70
2022/09/30 00:21:24;;;;;;;;;0.00;0.00;;;;;13.04;77.32;99796.88;4599992;28;2725293;-70
2022/09/30 00:23:50;;;;;;;;;0.00;0.00;;;;;13.00;76.82;99787.22;4597897;28;2724300;-70
2022/09/30 00:26:19;;;;;;;;;0.00;0.00;;;;;13.04;77.08;99792.50;4601255;28;2436161;-71
2022/09/30 00:28:49;;;;;;;;;0.00;0.00;;;;;12.99;76.84;99789.00;4632732;28;2722192;-71
2022/09/30 00:31:16;;;;;;;;;0.00;0.00;;;;;12.86;77.88;99753.91;4599769;28;2725325;-71
2022/09/30 00:33:42;;;;;;;;;0.00;0.00;;;;;12.89;77.46;99776.66;4601029;28;2704442;-70
2022/09/30 00:36:09;;;;;;;;;0.00;0.00;;;;;12.92;78.00;99777.56;4589883;28;2731547;-71
2022/09/30 00:38:35;;;;;;;;;0.00;0.00;;;;;12.89;78.20;99767.06;4597027;28;2733615;-71
2022/09/30 00:41:02;;;;;;;;;0.00;0.00;;;;;12.81;78.38;99754.75;4609562;28;2726316;-69
2022/09/30 00:43:39;;;;;;;;;0.00;0.00;;;;;12.93;78.64;99781.94;4619660;28;2733745;-71
2022/09/30 00:46:05;;;;;;;;;0.00;0.00;;;;;12.84;78.39;99763.50;4621958;28;2721155;-70
2022/09/30 00:48:37;;;;;;;;;0.00;0.00;;;;;12.86;78.38;99774.00;4599028;28;2721135;-68
2022/09/30 00:51:05;;;;;;;;;0.00;0.00;;;;;12.90;78.41;99773.16;4611466;28;2729480;-69
2022/09/30 00:53:43;;;;;;;;;0.50;0.00;;;;;12.92;78.39;99777.56;4595166;28;2725655;-70
2022/09/30 00:56:22;;;;;;;;;0.00;0.00;;;;;12.74;78.80;99756.44;4591824;28;2708985;-69
2022/09/30 00:58:58;;;;;;;;;0.00;0.00;;;;;12.79;79.15;99770.44;4599824;28;2722595;-69
2022/09/30 01:01:24;;;;;;;;;0.00;0.00;;;;;12.64;79.15;99767.72;4597906;28;2725306;-71
2022/09/30 01:04:02;;;;;;;;;0.00;0.00;;;;;12.57;80.40;99771.13;4595920;28;2721112;-71
2022/09/30 01:06:27;;;;;;;;;0.00;0.00;;;;;12.68;79.48;99779.97;4622478;28;2714881;-70
2022/09/30 01:08:54;;;;;;;;;0.00;0.00;;;;;12.60;79.63;99755.44;4605963;28;2712767;-71
2022/09/30 01:11:20;;;;;;;;;0.00;0.00;;;;;12.66;79.05;99772.09;4616531;28;2721131;-70
2022/09/30 01:13:50;;;;;;;;;0.00;0.00;;;;;12.53;79.25;99752.78;4621150;28;2723222;-71
2022/09/30 01:16:34;;;;;;;;;1.00;0.00;;;;;12.54;79.07;99753.66;4596561;28;2723184;-71
2022/09/30 01:19:20;;;;;;;;;0.00;0.00;;;;;12.59;78.69;99759.78;4593732;28;2721127;-70
2022/09/30 01:22:15;;;;;;;;;0.00;0.00;;;;;12.48;78.58;99743.97;4594551;28;2724284;-71
2022/09/30 01:25:05;;;;;;;;;0.50;0.00;;;;;12.41;78.13;99741.28;4597437;28;2725286;-68
2022/09/30 01:28:02;;;;;;;;;0.00;0.00;;;;;12.52;78.01;99765.84;4597827;28;2724255;-70
2022/09/30 01:31:22;;;;;;;;;0.00;0.00;;;;;12.60;77.73;99773.78;4593476;28;2719083;-70
2022/09/30 01:34:15;;;;;;;;;0.00;0.00;;;;;12.62;77.76;99780.78;4529356;28;2719107;-69
2022/09/30 01:36:55;;;;;;;;;0.00;0.00;;;;;12.66;77.57;99787.81;4592061;28;2434641;-71
2022/09/30 01:39:24;;;;;;;;;0.00;0.00;;;;;12.66;78.26;99792.19;4612269;28;1780559;-71
2022/09/30 01:42:06;;;;;;;;;0.00;0.00;;;;;12.66;78.17;99794.81;4620799;28;2433587;-71
2022/09/30 01:45:01;;;;;;;;;0.00;0.00;;;;;12.61;78.29;99778.16;4620033;28;2714869;-71
2022/09/30 01:47:33;;;;;;;;;0.00;0.00;;;;;12.59;78.35;99772.03;4593299;28;2437819;-70
2022/09/30 01:50:19;;;;;;;;;0.00;0.00;;;;;12.63;77.86;99758.06;4599999;28;2706882;-70
2022/09/30 01:53:03;;;;;;;;;0.00;0.00;;;;;12.72;77.79;99773.91;4594891;28;2721132;-70
2022/09/30 01:56:04;;;;;;;;;0.00;0.00;;;;;12.74;78.11;99773.03;4597087;28;2431515;-70
2022/09/30 01:58:41;;;;;;;;;0.00;0.00;;;;;12.63;77.58;99745.84;4598176;28;2721124;-70
2022/09/30 02:01:20;;;;;;;;;0.00;0.00;;;;;12.81;76.76;99767.84;4599445;28;2721131;-70
2022/09/30 02:03:55;;;;;;;;;0.00;0.00;;;;;12.75;76.78;99758.19;4597126;28;2714921;-70
2022/09/30 02:06:29;;;;;;;;;0.00;0.00;;;;;12.79;76.68;99762.59;4597611;28;2719040;-69
2022/09/30 02:09:02;;;;;;;;;1.00;0.00;;;;;12.77;76.61;99753.81;4611553;28;1780548;-71
2022/09/30 02:11:33;;;;;;;;;0.00;0.00;;;;;12.85;76.54;99762.66;4609488;28;2723242;-70
2022/09/30 02:14:08;;;;;;;;;0.00;0.00;;;;;12.86;75.97;99750.44;4614718;28;2724276;-72
2022/09/30 02:16:38;;;;;;;;;0.00;0.00;;;;;12.96;75.87;99767.09;4599140;28;2714878;-70
2022/09/30 02:19:16;;;;;;;;;0.00;0.00;;;;;12.99;75.90;99767.13;4588728;28;2712778;-69
2022/09/30 02:21:48;;;;;;;;;0.00;0.00;;;;;12.94;75.86;99744.38;4598885;28;2714877;-71
2022/09/30 02:24:18;;;;;;;;;0.00;0.00;;;;;12.99;75.91;99754.00;4598349;28;2725309;-70
2022/09/30 02:26:48;;;;;;;;;0.00;0.00;;;;;12.88;75.89;99720.72;4599554;28;2711038;-69
2022/09/30 02:29:22;;;;;;;;;0.00;0.00;;;;;12.85;75.85;99723.34;4587302;28;2722268;-71
2022/09/30 02:31:52;;;;;;;;;0.00;0.00;;;;;13.05;75.70;99746.19;4612487;28;1781028;-70
2022/09/30 02:34:29;;;;;;;;;0.00;0.00;;;;;12.99;76.05;99739.19;4617362;28;2724193;-71
2022/09/30 02:37:13;;;;;;;;;0.00;0.00;;;;;13.00;76.36;99740.91;4618768;28;2710706;-69
2022/09/30 02:40:10;;;;;;;;;0.00;0.00;;;;;13.11;75.69;99755.00;4598094;28;2714933;-70
2022/09/30 02:42:37;;;;;;;;;0.00;0.00;;;;;13.06;75.81;99748.81;4597669;28;2721151;-71
2022/09/30 02:45:09;;;;;;;;;0.00;0.00;;;;;12.47;76.45;99658.41;4597388;28;2724279;-70
2022/09/30 02:48:03;;;;;;;;;0.00;0.00;;;;;13.00;76.22;99747.91;4601438;28;2708620;-69
2022/09/30 02:50:43;;;;;;;;;0.00;0.00;;;;;12.99;75.61;99747.03;4599229;28;2714901;-71
2022/09/30 02:53:25;;;;;;;;;0.00;0.00;;;;;13.10;75.61;99765.47;4595892;28;2722185;-69
2022/09/30 02:56:06;;;;;;;;;0.00;0.00;;;;;13.10;75.90;99770.69;4596312;28;2725338;-69
2022/09/30 02:58:38;;;;;;;;;0.00;0.00;;;;;13.04;75.99;99753.19;4594710;28;2714874;-70
2022/09/30 03:01:06;;;;;;;;;0.00;0.00;;;;;13.15;75.74;99771.63;4597923;28;2721115;-69
2022/09/30 03:03:37;;;;;;;;;0.00;0.00;;;;;13.03;75.92;99759.31;4597522;28;2723240;-70
2022/09/30 03:06:03;;;;;;;;;0.00;0.00;;;;;13.00;76.86;99776.75;4598676;28;2431592;-71
2022/09/30 03:08:29;;;;;;;;;0.00;0.00;;;;;13.05;76.97;99778.53;4602303;28;2725282;-71
2022/09/30 03:10:55;;;;;;;;;0.00;0.00;;;;;13.05;76.53;99764.53;4619584;28;2721111;-70
2022/09/30 03:13:44;;;;;;;;;0.00;0.00;;;;;12.57;75.82;99668.94;4617897;28;2724298;-70
2022/09/30 03:16:33;;;;;;;;;0.00;0.00;;;;;13.19;75.77;99772.50;4620049;28;2717323;-69
2022/09/30 03:19:13;;;;;;;;;0.00;0.00;;;;;13.20;75.75;99774.28;4590008;28;2725290;-70
2022/09/30 03:22:05;;;;;;;;;0.00;0.00;;;;;13.12;76.03;99768.97;4598764;28;2721151;-70
2022/09/30 03:24:39;;;;;;;;;0.00;0.00;;;;;13.25;76.40;99783.03;4597568;28;2727405;-69
2022/09/30 03:27:17;;;;;;;;;0.00;0.00;;;;;13.24;76.40;99783.91;4595261;28;2725275;-69
2022/09/30 03:30:06;;;;;;;;;1.00;0.00;;;;;13.22;76.26;99777.78;4597156;28;2725321;-71
2022/09/30 03:33:02;;;;;;;;;1.00;0.00;;;;;13.14;76.79;99769.84;4597273;28;2725297;-70
2022/09/30 03:36:06;;;;;;;;;0.00;0.00;;;;;13.30;76.08;99803.22;4598047;28;2725305;-70
2022/09/30 03:38:53;;;;;;;;;0.00;0.00;;;;;13.30;76.94;99802.34;4596538;28;2725275;-69
2022/09/30 03:41:31;;;;;;;;;0.00;0.00;;;;;13.20;77.03;99782.13;4597242;28;2724296;-70
2022/09/30 03:44:08;;;;;;;;;0.00;0.00;;;;;13.29;76.78;99800.53;4600944;28;2727365;-71
2022/09/30 03:46:55;;;;;;;;;0.00;0.00;;;;;13.28;76.90;99806.66;4596573;28;2727406;-71
2022/09/30 03:49:24;;;;;;;;;0.00;0.00;;;;;13.25;77.04;99807.53;4597394;28;2722192;-70
2022/09/30 03:51:50;;;;;;;;;0.00;0.00;;;;;13.18;77.30;99804.84;4593982;28;2724237;-69
2022/09/30 03:54:16;;;;;;;;;0.00;0.00;;;;;13.18;77.87;99807.47;4597108;28;2731564;-70
2022/09/30 03:56:42;;;;;;;;;0.00;0.00;;;;;13.10;77.68;99791.69;4608641;28;2434668;-69
2022/09/30 03:59:21;;;;;;;;;0.00;0.00;;;;;12.97;77.64;99780.22;4621916;28;2727381;-71
2022/09/30 04:01:47;;;;;;;;;0.00;0.00;;;;;13.08;77.54;99806.53;4619119;28;2731568;-70
2022/09/30 04:04:13;;;;;;;;;0.00;0.00;;;;;13.06;77.83;99803.00;4603572;28;2725278;-70
2022/09/30 04:06:39;;;;;;;;;0.00;0.00;;;;;13.11;77.66;99817.03;4621750;28;2725777;-69
2022/09/30 04:09:05;;;;;;;;;0.00;0.00;;;;;12.99;77.36;99793.31;4624554;28;2725251;-69
2022/09/30 04:11:30;;;;;;;;;0.00;0.00;;;;;13.09;77.43;99819.66;4625359;28;2730522;-69
2022/09/30 04:13:56;;;;;;;;;0.00;0.00;;;;;13.01;77.72;99816.09;4630383;28;2722117;-69
2022/09/30 04:16:22;;;;;;;;;0.00;0.00;;;;;13.08;77.71;99828.38;4627981;28;2725298;-69
2022/09/30 04:18:48;;;;;;;;;0.00;0.00;;;;;12.92;77.61;99790.66;4626972;28;2731564;-70
2022/09/30 04:21:14;;;;;;;;;0.00;0.00;;;;;13.12;77.63;99826.66;4629798;28;2731555;-68
2022/09/30 04:23:41;;;;;;;;;3.00;1.00;;;;;13.12;77.60;99826.66;4622408;28;2727404;-69
2022/09/30 04:26:11;;;;;;;;;0.00;0.00;;;;;13.15;77.38;99834.56;4600084;28;2733643;-70
2022/09/30 04:28:37;;;;;;;;;0.00;0.00;;;;;13.10;77.29;99817.91;4599689;28;2724243;-69
2022/09/30 04:31:05;;;;;;;;;0.00;0.00;;;;;13.13;77.90;99825.81;4611240;28;2733968;-70
2022/09/30 04:33:32;;;;;;;;;1.00;0.00;;;;;13.25;77.98;99843.34;4620910;28;2715892;-70
2022/09/30 04:35:59;;;;;;;;;0.67;0.00;;;;;13.27;77.68;99846.88;4621743;28;2731513;-69
2022/09/30 04:38:26;;;;;;;;;0.00;0.00;;;;;13.29;77.27;99850.38;4621615;28;2720039;-69
2022/09/30 04:40:56;;;;;;;;;0.00;0.00;;;;;13.28;77.56;99841.63;4620814;28;2733643;-69
2022/09/30 04:43:23;;;;;;;;;0.00;0.00;;;;;13.35;77.49;99849.59;4618313;28;2729461;-69
2022/09/30 04:45:51;;;;;;;;;1.00;1.00;;;;;13.24;78.26;99837.25;4619084;28;2731585;-69
2022/09/30 04:48:18;;;;;;;;;0.00;0.00;;;;;13.24;77.69;99846.84;4619626;28;2731535;-70
2022/09/30 04:50:44;;;;;;;;;0.00;0.00;;;;;12.97;77.78;99801.22;4621913;28;2725289;-70
2022/09/30 04:53:13;;;;;;;;;0.00;0.00;;;;;13.30;77.55;99852.19;4621514;28;2723235;-69
2022/09/30 04:55:39;;;;;;;;;0.00;0.00;;;;;13.08;77.23;99822.25;4599306;28;2733658;-69
2022/09/30 04:58:05;;;;;;;;;0.00;0.00;;;;;13.18;77.57;99842.44;4599526;28;2733663;-69
2022/09/30 05:00:31;;;;;;;;;3.00;2.50;;;;;13.06;77.86;99822.22;4609580;28;2746110;-70
2022/09/30 05:02:57;;;;;;;;;1.00;0.00;;;;;13.08;78.12;99817.88;4626173;28;2733659;-70
2022/09/30 05:05:23;;;;;;;;;1.00;0.00;;;;;13.33;77.79;99867.97;4627903;28;2724228;-70
2022/09/30 05:07:49;;;;;;;;;0.00;0.00;;;;;13.39;78.58;99869.72;4623753;28;2731563;-70
2022/09/30 05:10:15;;;;;;;;;1.00;1.00;;;;;13.34;77.93;99853.97;4641166;28;2724218;-70
2022/09/30 05:12:41;;;;;;;;;0.00;0.00;;;;;13.33;78.45;99858.34;4605584;28;2734012;-68
2022/09/30 05:15:08;;;;;;;;;2.00;1.00;;;;;13.35;78.20;99860.97;4621977;28;2723179;-69
2022/09/30 05:17:34;;;;;;;;;0.00;0.00;;;;;13.44;78.29;99874.16;4598390;28;2725297;-68
2022/09/30 05:20:00;;;;;;;;;1.00;0.00;;;;;13.36;77.73;99851.34;4596196;28;2719375;-70
2022/09/30 05:22:27;;;;;;;;;0.67;0.67;;;;;13.39;77.90;99869.72;4596226;28;2721104;-69
2022/09/30 05:24:55;;;;;;;;;0.00;0.00;;;;;13.47;77.34;99883.81;4620204;28;2733675;-72
2022/09/30 05:27:21;;;;;;;;;0.00;0.00;;;;;13.43;77.40;99882.00;4598467;28;2733651;-70
2022/09/30 05:29:47;;;;;;;;;1.00;0.00;;;;;13.31;77.34;99864.44;4599077;28;2725325;-70
2022/09/30 05:32:13;;;;;;;;;1.00;1.00;;;;;13.31;78.11;99874.94;4602667;28;2725246;-70
2022/09/30 05:34:38;;;;;;;;;1.00;0.00;;;;;13.29;78.66;99876.59;4622306;28;2728451;-70
2022/09/30 05:37:05;;;;;;;;;1.00;1.00;;;;;13.20;78.62;99874.81;4626414;28;2725238;-70
2022/09/30 05:39:31;;;;;;;;;0.00;0.00;;;;;13.18;78.53;99860.78;4634760;28;2728440;-69
2022/09/30 05:41:58;;;;;;;;;0.00;0.00;;;;;13.29;78.20;99872.31;4619749;28;2731556;-70
2022/09/30 05:44:24;;;;;;;;;0.00;0.00;;;;;13.15;78.32;99860.78;4598672;28;2731583;-68
2022/09/30 05:46:50;;;;;;;;;5.33;5.33;;;;;13.37;78.59;99887.19;4593321;28;2724292;-70
2022/09/30 05:49:16;;;;;;;;;2.67;2.00;;;;;13.36;78.27;99896.81;4620055;28;2725279;-71
2022/09/30 05:51:42;;;;;;;;;4.00;3.50;;;;;13.42;78.17;99909.13;4619486;28;2743016;-70
2022/09/30 05:54:10;;;;;;;;;7.67;7.67;;;;;13.41;78.44;99917.84;4605270;28;2751695;-72
2022/09/30 05:56:38;;;;;;;;;29.33;29.33;;;;;12.89;78.36;99831.69;4619799;28;3589229;-68
2022/09/30 05:59:04;;;;;;;;;4.00;4.00;;;;;13.36;78.33;99924.81;4595705;28;2738862;-71
2022/09/30 06:01:32;;;;;;;;;27.00;27.00;;;;;13.33;78.62;99923.91;4595908;28;3578401;-71
2022/09/30 06:03:58;;;;;;;;;45.67;39.00;;;;;13.43;78.96;99934.47;4596713;28;3590894;-71
2022/09/30 06:06:25;;;;;;;;;2.00;2.00;;;;;13.41;78.34;99936.22;4594318;28;2739947;-71
2022/09/30 06:08:51;;;;;;;;;44.67;38.67;;;;;13.41;78.39;99921.38;4592629;28;3595461;-71
2022/09/30 06:11:20;;;;;;;;;3.00;3.00;;;;;13.48;78.34;99943.28;4602775;28;2731643;-71
2022/09/30 06:13:47;;;;;;;;;0.00;0.00;;;;;13.43;77.92;99921.34;4618972;28;2729460;-71
2022/09/30 06:16:13;;;;;;;;;1.00;1.00;;;;;13.54;77.55;99938.06;4598443;28;2725330;-71
2022/09/30 06:18:40;;;;;;;;;0.00;0.00;;;;;13.38;77.59;99910.84;4598145;28;2726324;-68
2022/09/30 06:21:08;;;;;;;;;1.00;1.00;;;;;13.45;77.79;99933.66;4599026;28;2719051;-68
2022/09/30 06:23:34;;;;;;;;;0.00;0.00;;;;;13.54;77.57;99953.81;4585945;28;2726340;-69
2022/09/30 06:26:02;;;;;;;;;2.00;2.00;;;;;13.37;77.71;99926.56;4597636;28;2739939;-69
2022/09/30 06:28:27;;;;;;;;;1.00;1.00;;;;;13.51;77.73;99956.44;4595927;28;2729459;-70
2022/09/30 06:30:53;;;;;;;;;4.50;3.50;;;;;13.48;77.57;99956.41;4604613;28;2747215;-70
2022/09/30 06:33:20;;;;;;;;;1.00;1.00;;;;;13.42;78.17;99972.97;4620946;28;2729481;-70
2022/09/30 06:35:47;;;;;;;;;0.00;0.00;;;;;13.42;78.25;99978.19;4619483;28;2723188;-71
2022/09/30 06:38:17;;;;;;;;;1.00;1.00;;;;;13.45;78.24;99987.84;4597844;28;2737778;-71
2022/09/30 06:40:44;;;;;;;;;1.00;1.00;;;;;13.37;78.13;99972.06;4595831;28;2725362;-70
2022/09/30 06:43:10;;;;;;;;;1.00;1.00;;;;;13.58;77.84;99983.59;4598010;28;2731609;-71
2022/09/30 06:45:37;;;;;;;;;1.00;1.00;;;;;13.62;77.38;99972.25;4597003;28;2735679;-71
2022/09/30 06:48:07;;;;;;;;;1.00;1.00;;;;;13.86;77.35;99985.56;4609830;28;2727400;-71
2022/09/30 06:50:33;;;;;;;;;1.00;1.00;;;;;14.01;76.65;100002.31;4619804;28;2727421;-70
2022/09/30 06:53:00;;;;;;;;;0.00;0.00;;;;;14.09;76.49;99998.00;4590948;28;2721151;-71
2022/09/30 06:55:27;;;;;;;;;2.00;1.00;;;;;14.07;76.44;99997.13;4584565;28;2721136;-71
2022/09/30 06:57:54;;;;;;;;;1.50;1.50;;;;;13.97;76.55;99982.16;4596957;28;2737816;-70
2022/09/30 07:00:20;;;;;;;;;0.00;0.00;;;;;13.98;76.22;99997.91;4590522;28;2729571;-70
2022/09/30 07:02:47;;;;;;;;;1.00;1.00;;;;;14.01;76.59;100012.84;4597827;28;2720066;-69
2022/09/30 07:05:14;;;;;;;;;1.00;1.00;;;;;14.02;76.61;100020.69;4615205;28;2725710;-68
2022/09/30 07:07:41;;;;;;;;;1.00;1.00;;;;;14.07;76.99;100026.00;4596509;28;2722154;-69
2022/09/30 07:10:07;;;;;;;;;1.50;1.00;;;;;14.13;77.03;100032.19;4595136;28;2725330;-70
2022/09/30 07:12:33;;;;;;;;;1.00;1.00;;;;;14.16;76.40;100027.81;4597297;28;2720460;-69
2022/09/30 07:14:59;;;;;;;;;2.00;1.00;;;;;14.18;77.04;100032.19;4595910;28;2725274;-70
2022/09/30 07:17:26;;;;;;;;;4.00;0.25;;;;;14.27;76.82;100044.53;4634569;28;1803433;-69
2022/09/30 07:19:53;;;;;;;;;2.00;1.00;;;;;14.28;77.48;100043.66;4617356;28;2722583;-68
2022/09/30 07:22:29;;;;;;;;;2.00;2.00;;;;;14.27;77.16;100040.16;4617223;28;2738168;-68
2022/09/30 07:25:02;;;;;;;;;3.00;2.00;;;;;14.34;76.88;100048.94;4596536;28;2737810;-69
2022/09/30 07:27:31;;;;;;;;;3.00;2.50;;;;;14.40;76.70;100064.75;4593143;28;2733643;-69
2022/09/30 07:30:01;;;;;;;;;3.00;3.00;;;;;14.31;76.50;100043.69;4596105;28;2736732;-70
2022/09/30 07:32:26;;;;;;;;;1.00;1.00;;;;;14.32;76.68;100056.84;4595107;28;2737775;-70
2022/09/30 07:34:52;;;;;;;;;1.00;1.00;;;;;14.44;76.53;100071.81;4598535;28;2723545;-70
2022/09/30 07:37:18;;;;;;;;;1.00;0.00;;;;;14.43;75.39;100059.53;4625434;28;2724276;-70
2022/09/30 07:39:47;;;;;;;;;0.00;0.00;;;;;14.61;75.81;100081.56;4616156;28;2725282;-72
2022/09/30 07:42:15;;;;;;;;;1.33;1.33;;;;;14.68;75.93;100097.41;4615997;28;2731539;-71
2022/09/30 07:44:43;;;;;;;;;1.00;1.00;;;;;14.68;76.05;100080.72;4615584;28;2729435;-71
2022/09/30 07:47:10;;;;;;;;;0.33;0.33;;;;;14.97;76.13;100104.56;4619916;28;2719373;-70
2022/09/30 07:49:37;;;;;;;;;1.00;0.00;;;;;15.20;76.01;100104.69;4620833;28;2717944;-71
2022/09/30 07:52:04;;;;;;;;;1.00;0.00;;;;;15.45;74.73;100089.81;4620200;28;2727683;-70
2022/09/30 07:54:32;;;;;;;;;1.00;0.00;;;;;16.13;72.93;100105.75;4620913;28;2728391;-71
2022/09/30 07:57:01;;;;;;;;;0.00;0.00;;;;;16.52;71.25;100104.00;4621209;28;2733661;-71
2022/09/30 07:59:27;;;;;;;;;1.00;1.00;;;;;16.76;71.32;100102.19;4602762;28;2724284;-71
2022/09/30 08:01:53;;;;;;;;;0.00;0.00;;;;;18.34;67.91;100093.41;4599550;28;2724233;-71
2022/09/30 08:04:20;;;;;;;;;1.00;1.00;;;;;18.97;65.12;100100.75;4604006;28;2725262;-70
2022/09/30 08:06:55;;;;;;;;;1.00;1.00;;;;;19.08;63.87;100119.16;4621677;28;2727354;-71
2022/09/30 08:09:22;;;;;;;;;2.00;1.00;;;;;18.87;64.11;100123.78;4599285;28;2725332;-70
2022/09/30 08:11:48;;;;;;;;;0.00;0.00;;;;;18.56;64.65;100107.34;4599625;28;2726340;-71
2022/09/30 08:14:23;;;;;;;;;1.50;0.00;;;;;18.60;64.73;100131.97;4603428;28;2722157;-71
2022/09/30 08:16:49;;;;;;;;;0.00;0.00;;;;;18.92;64.49;100122.84;4621376;28;2733623;-72
2022/09/30 08:19:20;;;;;;;;;0.50;0.50;;;;;22.09;57.02;100120.06;4601371;28;2727361;-72
2022/09/30 08:21:49;;;;;;;;;0.00;0.00;;;;;22.78;54.20;100132.53;4605008;28;2725243;-72
2022/09/30 08:24:15;;;;;;;;;0.00;0.00;;;;;22.21;53.96;100131.28;4620124;28;2728801;-72
2022/09/30 08:26:42;;;;;;;;;0.33;0.00;;;;;21.95;54.37;100121.28;4621429;28;2725297;-71
2022/09/30 08:29:10;;;;;;;;;0.00;0.00;;;;;21.45;56.83;100128.59;4621715;28;2725321;-71
2022/09/30 08:31:36;;;;;;;;;1.00;0.00;;;;;21.27;55.45;100129.84;4603305;28;2717987;-71
2022/09/30 08:34:03;;;;;;;;;1.00;0.00;;;;;20.58;56.72;100120.50;4638768;28;2728420;-71
2022/09/30 08:36:29;;;;;;;;;0.00;0.00;;;;;20.36;58.07;100163.31;4621379;28;2722526;-71
2022/09/30 08:38:57;;;;;;;;;0.33;0.33;;;;;19.97;59.28;100164.81;4620787;28;2725291;-71
2022/09/30 08:41:36;;;;;;;;;0.50;0.50;;;;;19.51;57.96;100182.19;4621102;28;2724288;-72
2022/09/30 08:44:43;;;;;;;;;0.00;0.00;;;;;18.81;57.57;100195.31;4601742;28;2729465;-71
2022/09/30 08:47:42;;;;;;;;;0.00;0.00;;;;;18.09;57.98;100212.56;4589576;28;2729484;-71
2022/09/30 08:51:05;;;;;;;;;0.00;0.00;;;;;17.67;59.51;100209.25;4601002;28;2728456;-71
2022/09/30 08:53:36;;;;;;;;;0.00;0.00;;;;;17.36;60.05;100216.41;4559642;28;2725331;-71
2022/09/30 08:56:05;;;;;;;;;0.00;0.00;;;;;16.84;61.42;100224.44;4562832;28;2725309;-71
2022/09/30 08:58:36;;;;;;;;;0.00;0.00;;;;;16.65;62.65;100228.78;4566881;28;2725323;-71
2022/09/30 09:01:10;;;;;;;;;0.00;0.00;;;;;16.37;62.99;100220.00;4599314;28;2727766;-71
2022/09/30 09:03:36;;;;;;;;;0.50;0.00;;;;;16.34;63.91;100236.69;4598139;28;2725310;-71
2022/09/30 09:06:26;;;;;;;;;0.00;0.00;;;;;16.27;64.44;100240.19;4606254;28;2722141;-71
2022/09/30 09:09:06;;;;;;;;;0.00;0.00;;;;;16.27;65.13;100234.91;4619828;28;2725362;-70
2022/09/30 09:12:00;;;;;;;;;1.00;0.00;;;;;16.30;65.78;100245.47;4601411;28;2725333;-72
2022/09/30 09:14:37;;;;;;;;;1.00;1.00;;;;;16.27;65.32;100253.34;4595554;28;2721158;-74
2022/09/30 09:17:17;;;;;;;;;0.00;0.00;;;;;16.16;65.34;100258.63;4598426;28;2725321;-68
2022/09/30 09:20:16;;;;;;;;;0.00;0.00;;;;;16.03;65.89;100241.00;4600060;28;2724252;-70
2022/09/30 09:22:44;;;;;;;;;0.50;0.50;;;;;16.43;65.66;100156.72;4584375;28;2729840;-71
2022/09/30 09:25:22;;;;;;;;;0.00;0.00;;;;;18.29;63.26;100260.03;4599198;28;2724249;-71
2022/09/30 09:28:21;;;;;;;;;0.00;0.00;;;;;19.52;59.32;100242.22;4598319;28;2728756;-71
2022/09/30 09:30:56;;;;;;;;;0.00;0.00;;;;;20.82;56.10;100242.19;4650990;28;2729456;-71
2022/09/30 09:33:28;;;;;;;;;0.00;0.00;;;;;21.89;52.17;100254.38;4615707;28;2731528;-72
2022/09/30 09:36:04;;;;;;;;;0.20;0.00;;;;;22.80;49.96;100261.19;4619869;28;2725262;-74
2022/09/30 09:38:39;;;;;;;;;0.00;0.00;;;;;23.55;49.37;100260.13;4619957;28;2722209;-70
2022/09/30 09:41:21;;;;;;;;;0.00;0.00;;;;;24.53;47.08;100267.91;4618341;28;2718996;-71
2022/09/30 09:44:14;;;;;;;;;0.00;0.00;;;;;25.16;44.72;100247.06;4636957;28;2731500;-72
2022/09/30 09:47:06;;;;;;;;;0.00;0.00;;;;;25.32;44.95;100262.63;4638325;28;2725279;-71
2022/09/30 09:49:37;;;;;;;;;0.00;0.00;;;;;26.15;45.08;100264.91;4636120;28;2716926;-71
2022/09/30 09:52:05;;;;;;;;;0.00;0.00;;;;;26.07;44.10;100283.09;4647750;28;2727397;-69
2022/09/30 09:54:40;;;;;;;;;0.00;0.00;;;;;25.47;42.95;100213.06;4637854;28;2723251;-70
2022/09/30 09:57:13;;;;;;;;;0.00;0.00;;;;;25.40;43.75;100273.91;4636756;28;2725277;-70
2022/09/30 10:03:20;;;;;;;;;0.00;0.00;;;;;25.53;43.90;100272.53;4630624;28;2723493;-72
2022/09/30 10:06:03;;;;;;;;;0.00;0.00;;;;;25.39;43.50;100274.84;4639220;28;2724828;-70
2022/09/30 10:08:39;;;;;;;;;0.60;0.00;;;;;26.06;43.15;100257.22;4637516;28;2725255;-71
2022/09/30 10:11:19;;;;;;;;;0.60;0.60;;;;;25.53;42.22;100245.81;4636146;28;2727370;-71
2022/09/30 10:13:47;;;;;;;;;0.00;0.00;;;;;24.89;45.27;100261.38;4652646;28;2733604;-70
2022/09/30 10:16:41;;;;;;;;;0.00;0.00;;;;;24.84;45.70;100260.69;4630848;28;2729421;-69
2022/09/30 10:19:27;;;;;;;;;1.20;1.20;;;;;24.19;47.60;100276.94;4618163;28;2741921;-70
2022/09/30 10:22:18;;;;;;;;;0.00;0.00;;;;;23.93;48.31;100287.50;4611030;28;2733607;-70
2022/09/30 10:24:46;;;;;;;;;0.00;0.00;;;;;23.47;48.59;100281.66;4647692;28;2725274;-70
2022/09/30 10:27:31;;;;;;;;;0.00;0.00;;;;;23.14;48.96;100271.00;4630237;28;2733745;-70
2022/09/30 10:29:59;;;;;;;;;2.60;2.40;;;;;22.81;49.58;100275.38;4635545;28;2737825;-71
2022/09/30 10:32:28;;;;;;;;;1.00;1.00;;;;;22.88;49.44;100295.63;4632386;28;2725246;-71
2022/09/30 10:35:05;;;;;;;;;0.00;0.00;;;;;23.15;49.10;100288.72;4634248;28;2725285;-71
2022/09/30 10:37:30;;;;;;;;;0.00;0.00;;;;;22.91;46.90;100284.00;4614933;28;2723218;-70
2022/09/30 10:40:02;;;;;;;;;0.60;0.00;;;;;22.92;47.96;100301.72;4618921;28;2727420;-70
2022/09/30 10:42:33;;;;;;;;;0.00;0.00;;;;;22.87;49.14;100291.19;4634389;28;2725289;-71
2022/09/30 10:45:06;;;;;;;;;0.40;0.00;;;;;22.72;48.60;100315.50;4630874;28;2731602;-70
2022/09/30 10:47:33;;;;;;;;;1.40;0.00;;;;;22.56;49.72;100299.03;4636200;28;2729464;-70
2022/09/30 10:50:12;;;;;;;;;0.00;0.00;;;;;22.45;49.84;100299.28;4646674;28;2724308;-71
2022/09/30 10:52:50;;;;;;;;;1.00;0.80;;;;;22.43;50.18;100314.41;4635383;28;2727412;-70
2022/09/30 10:55:23;;;;;;;;;0.00;0.00;;;;;22.57;47.46;100319.44;4636292;28;2726284;-71
2022/09/30 10:57:51;;;;;;;;;2.50;2.50;;;;;22.58;47.89;100315.84;4617515;28;2735770;-71
2022/09/30 11:00:22;;;;;;;;;1.00;1.00;;;;;22.59;50.18;100315.81;4619107;28;2727361;-70
2022/09/30 11:02:57;;;;;;;;;1.00;0.00;;;;;22.76;51.47;100320.75;4617265;28;2725255;-70
2022/09/30 11:05:29;;;;;;;;;2.00;2.00;;;;;22.84;49.72;100310.78;4636705;28;2735687;-70
2022/09/30 11:08:02;;;;;;;;;0.67;0.00;;;;;22.94;50.15;100326.53;4619004;28;2725290;-70
2022/09/30 11:10:44;;;;;;;;;0.50;0.00;;;;;23.02;48.62;100321.94;4619580;28;2731579;-70
2022/09/30 11:13:29;;;;;;;;;0.00;0.00;;;;;22.91;49.29;100318.63;4618902;28;2724240;-70
2022/09/30 11:16:07;;;;;;;;;1.00;0.00;;;;;23.03;49.43;100323.69;4619278;28;2729455;-70
2022/09/30 11:18:35;;;;;;;;;2.00;1.80;;;;;22.92;48.52;100320.34;4637782;28;2731771;-70
2022/09/30 11:21:11;;;;;;;;;0.00;0.00;;;;;22.83;49.67;100318.81;4649556;28;2725228;-70
2022/09/30 11:23:51;;;;;;;;;0.00;0.00;;;;;22.94;49.73;100326.53;4622824;28;2725295;-70
2022/09/30 11:27:08;;;;;;;;;0.60;0.60;;;;;22.90;49.10;100314.19;4641205;28;2722125;-70
2022/09/30 11:29:48;;;;;;;;;0.00;0.00;;;;;23.45;47.69;100318.16;4618005;28;2733651;-70
2022/09/30 11:32:31;;;;;;;;;0.00;0.00;;;;;23.91;45.57;100318.69;4641187;28;2721480;-71
2022/09/30 11:35:14;;;;;;;;;0.60;0.00;;;;;24.25;46.59;100310.56;4640094;28;2727325;-71
2022/09/30 11:38:09;;;;;;;;;1.00;1.00;;;;;23.97;44.41;100299.84;4620983;28;2725285;-69
2022/09/30 11:40:55;;;;;;;;;5.40;4.60;;;;;23.63;46.72;100319.44;4620514;28;2748594;-70
2022/09/30 11:43:31;;;;;;;;;0.00;0.00;;;;;23.41;46.54;100332.47;4616870;28;2727321;-70
2022/09/30 11:46:26;;;;;;;;;0.40;0.40;;;;;23.54;47.13;100338.38;4639116;28;2721426;-70